Time;durP1;ratioP1;P1;durP2;ratioP2;P2;SDS_P1;SDS_P2;PMS_P1;PMS_P2;Temp;Humidity;BMP_temperature;BMP_pressure;BME280_temperature;BME280_humidity;BME280_pressure;Samples;Min_cycle;Max_cycle;Signal;HPM_P1;HPM_P2
2022/03/03 00:01:44;;;;;;;8.58;6.37;;;;;;;2.16;100.00;99772.67;1740601;82;21283;-76
2022/03/03 00:04:50;;;;;;;7.47;6.40;;;;;;;2.11;100.00;99773.08;1743672;80;21233;-83
2022/03/03 00:07:57;;;;;;;8.73;6.47;;;;;;;2.06;100.00;99760.50;1745702;82;21200;-76
2022/03/03 00:11:04;;;;;;;7.50;6.05;;;;;;;2.05;100.00;99755.59;1747018;82;21161;-83
2022/03/03 00:14:09;;;;;;;7.67;5.22;;;;;;;2.05;100.00;99750.70;1747014;82;21877;-84
2022/03/03 00:17:16;;;;;;;7.17;5.50;;;;;;;2.05;100.00;99746.66;1745906;82;21288;-84
2022/03/03 00:20:22;;;;;;;8.58;5.78;;;;;;;2.04;100.00;99733.67;1747275;82;21268;-79
2022/03/03 00:23:28;;;;;;;6.37;5.47;;;;;;;2.01;100.00;99739.33;1747123;82;21339;-74
2022/03/03 00:26:34;;;;;;;8.58;6.12;;;;;;;1.96;100.00;99727.23;1746987;82;21231;-83
2022/03/03 00:29:40;;;;;;;7.22;4.33;;;;;;;1.93;100.00;99725.68;1747187;82;21796;-84
2022/03/03 00:32:46;;;;;;;8.75;6.05;;;;;;;1.92;100.00;99715.86;1745877;82;21354;-84
2022/03/03 00:35:54;;;;;;;6.30;5.60;;;;;;;1.92;100.00;99712.31;1747087;82;21351;-77
2022/03/03 00:39:00;;;;;;;7.67;6.10;;;;;;;1.89;100.00;99711.25;1747006;82;21287;-84
2022/03/03 00:42:05;;;;;;;7.00;5.70;;;;;;;1.86;100.00;99708.81;1746611;82;21888;-84
2022/03/03 00:45:11;;;;;;;9.35;5.72;;;;;;;1.85;100.00;99708.46;1747083;82;21371;-75
2022/03/03 00:48:16;;;;;;;8.80;6.35;;;;;;;1.85;100.00;99701.22;1747086;82;21292;-83
2022/03/03 00:51:21;;;;;;;7.15;5.97;;;;;;;1.82;100.00;99704.18;1747143;82;21279;-83
2022/03/03 00:54:26;;;;;;;9.95;5.97;;;;;;;1.81;100.00;99709.22;1747182;82;21761;-84
2022/03/03 00:57:32;;;;;;;7.90;5.65;;;;;;;1.81;100.00;99704.33;1746353;82;21300;-83
2022/03/03 01:00:39;;;;;;;8.83;6.45;;;;;;;1.78;100.00;99697.34;1747070;82;21304;-77
2022/03/03 01:03:47;;;;;;;6.95;5.80;;;;;;;1.77;100.00;99694.30;1747089;82;21351;-84
2022/03/03 01:06:52;;;;;;;9.95;6.20;;;;;;;1.78;100.00;99686.56;1741593;81;21177;-77
2022/03/03 01:09:56;;;;;;;8.53;5.78;;;;;;;1.78;100.00;99691.95;1741499;82;21818;-85
2022/03/03 01:13:02;;;;;;;9.65;6.47;;;;;;;1.77;100.00;99687.55;1740506;82;21837;-84
2022/03/03 01:16:08;;;;;;;8.13;6.30;;;;;;;1.76;100.00;99683.16;1741520;82;21319;-77
2022/03/03 01:19:14;;;;;;;7.92;5.67;;;;;;;1.76;100.00;99673.22;1740387;82;21205;-84
2022/03/03 01:22:19;;;;;;;9.73;6.33;;;;;;;1.77;100.00;99678.12;1740916;82;21342;-77
2022/03/03 01:25:26;;;;;;;7.17;5.78;;;;;;;1.75;100.00;99675.56;1741610;82;21816;-83
2022/03/03 01:28:31;;;;;;;7.40;5.72;;;;;;;1.74;100.00;99659.50;1740137;82;21332;-75
2022/03/03 01:31:36;;;;;;;10.38;6.33;;;;;;;1.76;100.00;99654.34;1740233;82;21311;-76
2022/03/03 01:34:41;;;;;;;10.13;6.90;;;;;;;1.74;100.00;99649.59;1740121;82;21363;-83
2022/03/03 01:37:48;;;;;;;10.10;7.22;;;;;;;1.75;100.00;99652.65;1740191;82;21197;-84
2022/03/03 01:40:54;;;;;;;9.08;5.78;;;;;;;1.76;100.00;99642.71;1740036;82;21778;-84
2022/03/03 01:43:59;;;;;;;8.98;6.33;;;;;;;1.76;100.00;99647.61;1740175;82;21856;-76
2022/03/03 01:47:06;;;;;;;8.78;6.33;;;;;;;1.74;100.00;99644.67;1741200;82;21319;-82
2022/03/03 01:50:13;;;;;;;10.43;6.95;;;;;;;1.69;100.00;99649.13;1741615;82;21707;-76
2022/03/03 01:53:17;;;;;;;9.03;6.50;;;;;;;1.65;100.00;99636.94;1741620;82;21303;-76
2022/03/03 01:56:22;;;;;;;6.80;5.00;;;;;;;1.61;100.00;99640.03;1741622;82;21158;-76
2022/03/03 01:59:26;;;;;;;7.60;5.78;;;;;;;1.56;100.00;99637.74;1741680;82;21296;-80
2022/03/03 02:02:31;;;;;;;6.80;5.00;;;;;;;1.52;100.00;99640.34;1740920;82;21847;-76
2022/03/03 02:05:37;;;;;;;9.05;5.75;;;;;;;1.50;100.00;99644.50;1741574;82;21318;-83
2022/03/03 02:08:42;;;;;;;8.15;5.58;;;;;;;1.48;100.00;99642.95;1748899;82;21765;-83
2022/03/03 02:11:49;;;;;;;8.53;5.87;;;;;;;1.47;100.00;99635.36;1749127;82;21323;-83
2022/03/03 02:14:55;;;;;;;7.42;6.05;;;;;;;1.48;100.00;99640.25;1747956;82;21758;-83
2022/03/03 02:17:55;;;;;;;10.38;5.78;;;;;;;1.47;100.00;99643.45;1749506;82;21335;-76
2022/03/03 02:21:00;;;;;;;9.18;6.03;;;;;;;1.47;100.00;99639.90;1747759;81;21207;-83
2022/03/03 02:24:07;;;;;;;8.95;5.72;;;;;;;1.45;100.00;99634.62;1749484;82;21785;-83
2022/03/03 02:27:13;;;;;;;8.40;5.33;;;;;;;1.48;100.00;99636.20;1748899;82;21307;-83
2022/03/03 02:30:22;;;;;;;7.95;5.65;;;;;;;1.49;100.00;99626.63;1749515;82;21291;-76
2022/03/03 02:33:28;;;;;;;9.08;5.37;;;;;;;1.50;100.00;99626.98;1748110;82;21708;-76
2022/03/03 02:36:34;;;;;;;8.75;5.92;;;;;;;1.53;100.00;99625.38;1749356;82;21848;-83
2022/03/03 02:39:41;;;;;;;8.23;5.55;;;;;;;1.54;100.00;99622.18;1747943;82;21323;-83
2022/03/03 02:42:47;;;;;;;7.22;5.65;;;;;;;1.56;100.00;99621.57;1748546;82;21303;-83
2022/03/03 02:45:53;;;;;;;11.30;7.37;;;;;;;1.58;100.00;99624.97;1749518;82;21263;-76
2022/03/03 02:48:59;;;;;;;12.30;7.72;;;;;;;1.59;100.00;99625.32;1749101;82;22179;-82
2022/03/03 02:52:05;;;;;;;11.70;7.35;;;;;;;1.59;100.00;99617.23;1748968;82;21877;-83
2022/03/03 02:55:12;;;;;;;17.02;7.78;;;;;;;1.61;100.00;99620.66;1749429;82;21598;-75
2022/03/03 02:58:17;;;;;;;14.87;7.95;;;;;;;1.62;100.00;99614.28;1749559;82;21220;-83
2022/03/03 03:01:21;;;;;;;16.15;8.70;;;;;;;1.63;100.00;99617.33;1749349;82;21861;-83
2022/03/03 03:04:27;;;;;;;17.02;8.80;;;;;;;1.60;100.00;99616.27;1748904;82;21296;-84
2022/03/03 03:07:33;;;;;;;13.45;8.25;;;;;;;1.57;100.00;99612.48;1748093;81;21308;-76
2022/03/03 03:10:39;;;;;;;15.32;8.35;;;;;;;1.57;100.00;99612.48;1740276;82;21758;-76
2022/03/03 03:13:45;;;;;;;20.68;10.25;;;;;;;1.55;100.00;99609.05;1741533;82;21319;-84
2022/03/03 03:16:51;;;;;;;16.62;10.48;;;;;;;1.54;100.00;99603.31;1741309;82;21315;-77
2022/03/03 03:19:56;;;;;;;15.20;9.58;;;;;;;1.53;100.00;99596.22;1740908;82;21312;-84
2022/03/03 03:23:02;;;;;;;15.55;9.65;;;;;;;1.51;100.00;99596.37;1740401;82;21299;-76
2022/03/03 03:26:07;;;;;;;15.68;9.33;;;;;;;1.50;100.00;99579.81;1741377;82;21287;-83
2022/03/03 03:29:14;;;;;;;14.28;7.90;;;;;;;1.48;100.00;99575.07;1741328;82;21274;-76
2022/03/03 03:32:19;;;;;;;14.50;9.85;;;;;;;1.49;100.00;99569.18;1740874;82;21335;-76
2022/03/03 03:35:25;;;;;;;16.48;9.80;;;;;;;1.47;100.00;99561.24;1740712;82;21371;-76
2022/03/03 03:38:31;;;;;;;17.75;9.95;;;;;;;1.45;100.00;99549.73;1740154;82;21857;-76
2022/03/03 03:41:36;;;;;;;18.00;9.70;;;;;;;1.41;100.00;99545.63;1741506;82;21884;-76
2022/03/03 03:44:42;;;;;;;19.15;10.18;;;;;;;1.40;100.00;99543.05;1741253;82;21362;-84
2022/03/03 03:47:49;;;;;;;13.88;8.13;;;;;;;1.40;100.00;99529.58;1740172;81;21232;-77
2022/03/03 03:50:55;;;;;;;17.17;10.10;;;;;;;1.39;100.00;99525.18;1740340;82;21299;-84
2022/03/03 03:54:00;;;;;;;17.42;8.18;;;;;;;1.38;100.00;99522.13;1741244;82;21300;-84
2022/03/03 03:57:06;;;;;;;17.05;8.63;;;;;;;1.36;100.00;99518.70;1741006;82;21339;-78
2022/03/03 04:00:14;;;;;;;14.83;8.50;;;;;;;1.34;100.00;99520.70;1741069;82;21217;-75
2022/03/03 04:03:19;;;;;;;12.60;7.60;;;;;;;1.34;100.00;99508.57;1741712;82;21851;-75
2022/03/03 04:06:24;;;;;;;13.20;8.53;;;;;;;1.32;100.00;99503.80;1740299;82;21738;-75
2022/03/03 04:09:30;;;;;;;19.17;9.45;;;;;;;1.31;100.00;99498.06;1741835;81;21256;-82
2022/03/03 04:12:35;;;;;;;18.25;10.00;;;;;;;1.30;100.00;99493.67;1740724;82;21312;-75
2022/03/03 04:15:41;;;;;;;19.90;10.95;;;;;;;1.28;100.00;99491.13;1741495;82;21229;-75
2022/03/03 04:18:47;;;;;;;19.17;11.33;;;;;;;1.28;100.00;99491.13;1741427;82;21264;-83
2022/03/03 04:21:53;;;;;;;17.23;10.78;;;;;;;1.27;100.00;99487.58;1740166;82;21224;-84
2022/03/03 04:24:58;;;;;;;18.02;10.95;;;;;;;1.26;100.00;99483.16;1741479;82;21806;-76
2022/03/03 04:28:04;;;;;;;22.37;11.70;;;;;;;1.27;100.00;99489.39;1740343;82;21307;-83
2022/03/03 04:31:10;;;;;;;21.42;12.00;;;;;;;1.26;100.00;99485.84;1740712;82;21868;-83
2022/03/03 04:34:16;;;;;;;17.95;10.65;;;;;;;1.27;100.00;99488.92;1741583;82;21167;-76
2022/03/03 04:37:22;;;;;;;17.48;11.70;;;;;;;1.29;100.00;99483.39;1741496;82;21173;-76
2022/03/03 04:40:27;;;;;;;18.07;10.68;;;;;;;1.32;100.00;99486.28;1741362;82;21209;-75
2022/03/03 04:43:32;;;;;;;21.02;12.45;;;;;;;1.35;100.00;99489.56;1741432;82;21281;-75
2022/03/03 04:46:37;;;;;;;21.87;12.60;;;;;;;1.37;100.00;99489.45;1741261;82;21323;-77
2022/03/03 04:49:42;;;;;;;21.80;13.28;;;;;;;1.38;100.00;99484.41;1741475;82;21331;-76
2022/03/03 04:52:48;;;;;;;26.37;15.50;;;;;;;1.41;100.00;99481.41;1740749;82;21197;-81
2022/03/03 04:55:53;;;;;;;26.50;14.68;;;;;;;1.41;100.00;99480.95;1741497;82;21746;-74
2022/03/03 04:58:58;;;;;;;30.30;16.15;;;;;;;1.44;100.00;99483.34;1741532;82;21279;-83
2022/03/03 05:02:04;;;;;;;36.70;19.42;;;;;;;1.41;100.00;99477.38;1740320;82;21184;-83
2022/03/03 05:05:11;;;;;;;42.98;23.50;;;;;;;1.41;100.00;99480.07;1741441;82;21848;-77
2022/03/03 05:08:16;;;;;;;35.38;21.35;;;;;;;1.43;100.00;99479.45;1740193;82;21205;-83
2022/03/03 05:11:21;;;;;;;33.18;18.90;;;;;;;1.46;100.00;99491.31;1740452;81;21201;-83
2022/03/03 05:14:26;;;;;;;49.55;25.10;;;;;;;1.48;100.00;99486.62;1741468;82;21813;-82
2022/03/03 05:17:32;;;;;;;47.33;25.57;;;;;;;1.49;100.00;99484.28;1740759;82;21343;-82
2022/03/03 05:20:38;;;;;;;46.70;23.55;;;;;;;1.51;100.00;99488.56;1741540;82;21742;-74
2022/03/03 05:23:44;;;;;;;43.98;25.43;;;;;;;1.51;100.00;99490.41;1741522;82;21332;-81
2022/03/03 05:26:51;;;;;;;46.02;25.23;;;;;;;1.50;100.00;99476.55;1741197;82;21745;-83
2022/03/03 05:29:56;;;;;;;55.67;28.95;;;;;;;1.51;100.00;99474.23;1741519;82;21169;-82
2022/03/03 05:33:03;;;;;;;59.95;28.50;;;;;;;1.49;100.00;99468.95;1740336;82;21335;-76
2022/03/03 05:36:13;;;;;;;64.10;30.70;;;;;;;1.47;100.00;99472.30;1741437;82;21185;-76
2022/03/03 05:39:19;;;;;;;71.80;32.40;;;;;;;1.46;100.00;99469.76;1740043;82;21181;-82
2022/03/03 05:42:24;;;;;;;58.30;29.05;;;;;;;1.48;100.00;99479.39;1740549;82;21295;-76
2022/03/03 05:45:30;;;;;;;66.47;32.25;;;;;;;1.47;100.00;99469.61;1741526;82;21308;-74
2022/03/03 05:48:35;;;;;;;68.00;33.30;;;;;;;1.50;100.00;99469.31;1741485;82;21237;-74
2022/03/03 05:51:41;;;;;;;55.78;28.35;;;;;;;1.54;100.00;99472.09;1740075;82;21308;-75
2022/03/03 05:54:46;;;;;;;61.50;31.05;;;;;;;1.55;100.00;99468.89;1741478;82;21814;-75
2022/03/03 05:57:53;;;;;;;59.70;30.17;;;;;;;1.59;100.00;99466.28;1740545;82;21304;-82
2022/03/03 06:01:03;;;;;;;64.58;31.87;;;;;;;1.63;100.00;99460.13;1741506;82;21165;-75
2022/03/03 06:04:10;;;;;;;54.65;30.72;;;;;;;1.64;100.00;99454.58;1741622;82;21802;-82
2022/03/03 06:07:17;;;;;;;65.35;32.10;;;;;;;1.64;100.00;99460.47;1740993;82;21315;-76
2022/03/03 06:10:23;;;;;;;66.47;35.58;;;;;;;1.62;100.00;99459.27;1741463;82;21571;-81
2022/03/03 06:13:31;;;;;;;62.35;33.00;;;;;;;1.62;100.00;99455.73;1752966;82;21212;-82
2022/03/03 06:16:39;;;;;;;55.30;31.77;;;;;;;1.61;100.00;99452.69;1754457;80;21303;-76
2022/03/03 06:19:46;;;;;;;55.70;30.72;;;;;;;1.62;100.00;99447.64;1739387;82;21269;-78
2022/03/03 06:22:52;;;;;;;61.00;35.08;;;;;;;1.62;100.00;99437.70;1751510;81;21759;-82
2022/03/03 06:26:11;;;;;;;88.70;45.00;;;;;;;1.67;100.00;99419.27;1751719;82;21175;-82
2022/03/03 06:29:17;;;;;;;150.25;68.17;;;;;;;1.75;100.00;99421.27;1753351;82;21300;-76
2022/03/03 06:32:22;;;;;;;54.48;31.52;;;;;;;1.84;100.00;99425.80;1747153;80;21297;-82
2022/03/03 06:35:28;;;;;;;45.00;28.27;;;;;;;1.91;100.00;99428.77;1741077;82;21310;-82
2022/03/03 06:38:34;;;;;;;42.62;24.90;;;;;;;1.97;100.00;99410.16;1741542;82;21317;-82
2022/03/03 06:41:39;;;;;;;39.60;24.30;;;;;;;2.09;100.00;99415.42;1742256;82;21800;-77
2022/03/03 06:44:46;;;;;;;35.43;21.87;;;;;;;2.14;100.00;99408.59;1742347;82;21334;-83
2022/03/03 06:47:53;;;;;;;39.10;23.20;;;;;;;2.14;100.00;99406.39;1750277;80;21291;-82
2022/03/03 06:51:02;;;;;;;37.80;23.30;;;;;;;2.10;100.00;99403.62;1770341;80;21782;-83
2022/03/03 06:54:09;;;;;;;35.00;21.87;;;;;;;2.11;100.00;99408.87;1761167;80;21261;-81
2022/03/03 06:57:15;;;;;;;39.03;22.87;;;;;;;2.15;100.00;99408.94;1751982;80;21312;-82
2022/03/03 07:00:23;;;;;;;33.08;22.25;;;;;;;2.20;100.00;99402.60;1753175;82;21877;-76
2022/03/03 07:03:29;;;;;;;41.48;23.18;;;;;;;2.23;100.00;99402.33;1742844;80;21310;-75
2022/03/03 07:06:34;;;;;;;40.78;25.05;;;;;;;2.23;100.00;99402.33;1742538;82;21354;-76
2022/03/03 07:09:39;;;;;;;40.55;22.93;;;;;;;2.25;100.00;99400.82;1741328;82;21314;-82
2022/03/03 07:12:45;;;;;;;32.45;20.08;;;;;;;2.24;100.00;99404.02;1737058;82;21844;-76
2022/03/03 07:15:54;;;;;;;33.83;21.07;;;;;;;2.25;100.00;99403.02;1729550;83;21911;-76
2022/03/03 07:19:00;;;;;;;34.38;21.02;;;;;;;2.24;100.00;99398.63;1755411;81;21263;-77
2022/03/03 07:22:28;;;;;;;33.80;21.62;;;;;;;2.23;100.00;99394.23;1755794;81;21307;-83
2022/03/03 07:25:40;;;;;;;32.95;22.05;;;;;;;2.25;100.00;99388.17;1748856;81;21335;-82
2022/03/03 07:28:48;;;;;;;32.08;20.95;;;;;;;2.30;100.00;99391.78;1753720;81;21673;-83
2022/03/03 07:32:05;;;;;;;40.28;22.60;;;;;;;2.27;100.00;99386.20;1747362;81;21314;-83
2022/03/03 07:35:17;;;;;;;35.43;22.25;;;;;;;2.26;100.00;99391.25;1756907;81;21747;-83
2022/03/03 07:38:25;;;;;;;32.73;21.40;;;;;;;2.22;100.00;99392.53;1753939;81;21193;-82
2022/03/03 07:41:31;;;;;;;32.65;21.23;;;;;;;2.20;100.00;99389.61;1752207;81;21308;-81
2022/03/03 07:44:37;;;;;;;31.48;19.62;;;;;;;2.15;100.00;99387.35;1739686;81;21323;-82
2022/03/03 07:47:42;;;;;;;34.92;22.45;;;;;;;2.16;100.00;99385.50;1760039;81;21315;-77
2022/03/03 07:50:47;;;;;;;33.78;20.32;;;;;;;2.14;100.00;99375.36;1766186;81;21617;-83
2022/03/03 07:53:53;;;;;;;38.63;23.47;;;;;;;2.18;100.00;99380.83;1768399;81;21343;-82
2022/03/03 07:57:00;;;;;;;33.10;22.07;;;;;;;2.22;100.00;99377.70;1768341;81;21936;-83
2022/03/03 08:00:15;;;;;;;35.05;21.90;;;;;;;2.23;100.00;99366.40;1768443;81;21268;-83
2022/03/03 08:03:25;;;;;;;34.23;20.68;;;;;;;2.23;100.00;99379.39;1742075;81;21912;-83
2022/03/03 08:06:32;;;;;;;31.23;20.10;;;;;;;2.22;100.00;99362.01;1739632;82;21833;-83
2022/03/03 08:09:39;;;;;;;31.40;19.98;;;;;;;2.16;100.00;99353.97;1739551;82;21221;-83
2022/03/03 08:12:45;;;;;;;31.45;20.82;;;;;;;2.13;100.00;99343.49;1730881;82;21703;-77
2022/03/03 08:15:52;;;;;;;30.45;20.72;;;;;;;2.11;100.00;99334.68;1753033;82;21296;-77
2022/03/03 08:19:00;;;;;;;29.20;19.90;;;;;;;2.10;100.00;99322.19;1753229;82;21256;-76
2022/03/03 08:22:05;;;;;;;32.30;19.77;;;;;;;2.17;100.00;99313.03;1753115;82;21347;-77
2022/03/03 08:25:10;;;;;;;28.10;19.40;;;;;;;2.23;100.00;99307.88;1759743;80;21789;-83
2022/03/03 08:28:17;;;;;;;28.57;20.12;;;;;;;2.26;100.00;99304.05;1761151;79;21437;-83
2022/03/03 08:31:25;;;;;;;30.10;20.00;;;;;;;2.28;100.00;99293.45;1751918;80;21277;-77
2022/03/03 08:34:48;;;;;;;27.95;18.90;;;;;;;2.32;100.00;99282.37;1753220;82;21846;-76
2022/03/03 08:38:00;;;;;;;29.37;19.65;;;;;;;2.36;100.00;99267.08;1753288;82;21347;-77
2022/03/03 08:41:05;;;;;;;27.37;17.82;;;;;;;2.38;100.00;99266.41;1753068;82;21186;-83
2022/03/03 08:44:15;;;;;;;24.40;15.85;;;;;;;2.42;100.00;99269.17;1753609;80;21191;-76
2022/03/03 08:47:20;;;;;;;20.92;16.30;;;;;;;2.48;100.00;99270.41;1753169;80;21301;-77
2022/03/03 08:50:27;;;;;;;21.05;15.40;;;;;;;2.55;100.00;99268.33;1781508;80;21282;-83
2022/03/03 08:53:34;;;;;;;21.30;15.60;;;;;;;2.65;100.00;99255.27;1778384;80;21180;-83
2022/03/03 08:56:40;;;;;;;18.90;14.20;;;;;;;2.73;100.00;99262.09;1782207;80;21303;-83
2022/03/03 08:59:46;;;;;;;20.50;14.93;;;;;;;2.79;100.00;99262.35;1783637;80;21154;-76
2022/03/03 09:02:53;;;;;;;15.88;12.40;;;;;;;2.85;100.00;99266.80;1782770;80;21746;-76
2022/03/03 09:06:01;;;;;;;19.98;13.62;;;;;;;2.86;100.00;99276.59;1770794;80;21817;-76
2022/03/03 09:09:06;;;;;;;19.90;13.60;;;;;;;2.80;100.00;99263.20;1783590;80;21668;-76
2022/03/03 09:12:13;;;;;;;18.95;13.95;;;;;;;2.75;100.00;99262.30;1782947;80;21137;-76
2022/03/03 09:15:19;;;;;;;17.87;13.03;;;;;;;2.75;100.00;99264.16;1776641;80;21189;-76
2022/03/03 09:18:26;;;;;;;18.35;12.82;;;;;;;2.77;100.00;99254.89;1769499;81;22184;-76
2022/03/03 09:21:32;;;;;;;16.48;12.73;;;;;;;2.78;100.00;99259.31;1767783;81;21790;-83
2022/03/03 09:24:38;;;;;;;15.98;12.68;;;;;;;2.79;100.00;99250.70;1770140;81;21256;-76
2022/03/03 09:27:45;;;;;;;19.15;13.22;;;;;;;2.78;100.00;99257.11;1761166;81;21284;-75
2022/03/03 09:30:56;;;;;;;17.17;12.93;;;;;;;2.78;100.00;99257.11;1754559;81;21159;-76
2022/03/03 09:34:01;;;;;;;18.52;13.30;;;;;;;2.79;100.00;99252.05;1745098;81;21520;-75
2022/03/03 09:37:07;;;;;;;17.55;12.90;;;;;;;2.81;100.00;99254.94;1746695;81;21165;-82
2022/03/03 09:40:14;;;;;;;18.92;14.23;;;;;;;2.83;100.00;99247.20;1741518;81;21171;-83
2022/03/03 09:43:19;;;;;;;11.75;9.23;;;;;;;2.85;100.00;99250.59;1752532;81;21267;-83
2022/03/03 09:46:24;;;;;;;11.20;9.20;;;;;;;2.89;100.00;99247.42;1747174;81;21141;-83
2022/03/03 09:49:30;;;;;;;12.78;8.83;;;;;;;2.98;100.00;99246.51;1758499;81;21268;-83
2022/03/03 09:52:35;;;;;;;9.95;7.42;;;;;;;3.07;99.43;99244.74;1753098;81;21326;-83
2022/03/03 09:55:41;;;;;;;8.75;7.35;;;;;;;3.12;98.31;99234.31;1750036;81;21327;-83
2022/03/03 09:58:49;;;;;;;9.13;7.53;;;;;;;3.14;97.91;99235.50;1757421;81;21870;-82
2022/03/03 10:01:55;;;;;;;7.08;5.75;;;;;;;3.15;97.89;99237.19;1763545;79;21300;-81
2022/03/03 10:05:04;;;;;;;6.80;5.45;;;;;;;3.15;97.00;99228.58;1748729;81;21244;-82
2022/03/03 10:08:14;;;;;;;7.97;6.60;;;;;;;3.13;97.07;99223.84;1759034;79;21295;-83
2022/03/03 10:11:20;;;;;;;8.30;6.53;;;;;;;3.11;97.16;99225.88;1762516;81;21186;-83
2022/03/03 10:14:41;;;;;;;7.65;6.35;;;;;;;3.08;96.71;99221.61;1753954;81;21149;-83
2022/03/03 10:17:47;;;;;;;7.75;6.65;;;;;;;3.10;96.91;99221.95;1754552;81;21279;-76
2022/03/03 10:21:04;;;;;;;7.90;6.47;;;;;;;3.10;96.43;99218.74;1766138;81;21276;-83
2022/03/03 10:24:30;;;;;;;8.35;7.35;;;;;;;3.08;96.41;99224.31;1756821;79;21260;-83
2022/03/03 10:27:36;;;;;;;9.40;7.25;;;;;;;3.09;96.73;99204.89;1760772;79;21208;-76
2022/03/03 10:30:58;;;;;;;9.28;7.75;;;;;;;3.12;97.07;99206.45;1761562;79;21231;-76
2022/03/03 10:34:07;;;;;;;8.08;7.15;;;;;;;3.13;96.98;99200.87;1757003;81;21252;-83
2022/03/03 10:37:16;;;;;;;8.03;7.03;;;;;;;3.13;97.10;99195.48;1767605;79;21816;-83
2022/03/03 10:40:24;;;;;;;9.08;7.58;;;;;;;3.12;96.84;99191.08;1757363;81;22258;-83
2022/03/03 10:43:30;;;;;;;10.63;8.10;;;;;;;3.12;96.58;99182.98;1758387;81;21281;-83
2022/03/03 10:46:35;;;;;;;9.20;7.30;;;;;;;3.13;96.82;99179.77;1767032;79;21655;-83
2022/03/03 10:49:40;;;;;;;10.70;8.40;;;;;;;3.12;96.14;99168.63;1756569;81;21191;-82
2022/03/03 10:52:47;;;;;;;13.18;9.70;;;;;;;3.12;96.35;99168.63;1761821;79;21275;-76
2022/03/03 10:56:18;;;;;;;9.78;8.75;;;;;;;3.16;96.74;99165.95;1760236;79;21841;-76
2022/03/03 10:59:30;;;;;;;8.10;7.12;;;;;;;3.19;96.67;99169.67;1766191;81;21347;-83
2022/03/03 11:02:36;;;;;;;7.83;6.90;;;;;;;3.20;95.99;99154.67;1744107;81;21208;-83
2022/03/03 11:05:56;;;;;;;7.62;6.83;;;;;;;3.21;95.70;99157.72;1769785;81;21213;-83
2022/03/03 11:09:02;;;;;;;9.13;7.30;;;;;;;3.23;95.55;99155.69;1769924;81;21138;-83
2022/03/03 11:12:11;;;;;;;6.92;6.15;;;;;;;3.23;95.19;99174.61;1761040;81;21336;-83
2022/03/03 11:15:19;;;;;;;9.93;8.93;;;;;;;3.23;94.96;99147.59;1746758;81;21785;-83
2022/03/03 11:18:27;;;;;;;10.13;9.13;;;;;;;3.27;95.72;99137.31;1767874;80;21208;-83
2022/03/03 11:21:32;;;;;;;10.78;9.20;;;;;;;3.34;96.01;99138.39;1765319;80;21284;-83
2022/03/03 11:24:37;;;;;;;8.98;8.08;;;;;;;3.37;95.88;99127.24;1757611;80;21299;-83
2022/03/03 11:27:46;;;;;;;9.88;8.65;;;;;;;3.37;95.25;99125.89;1769729;80;21346;-76
2022/03/03 11:30:56;;;;;;;11.53;9.53;;;;;;;3.38;94.75;99131.64;1757291;81;21318;-77
2022/03/03 11:34:44;;;;;;;9.68;8.68;;;;;;;3.43;95.34;99111.73;1766270;80;21157;-83
2022/03/03 11:37:54;;;;;;;22.60;17.50;;;;;;;3.50;95.41;99112.80;1775331;80;21319;-77
2022/03/03 11:41:04;;;;;;;25.43;18.75;;;;;;;3.54;94.40;99110.63;1769279;80;21248;-76
2022/03/03 11:44:12;;;;;;;14.20;11.03;;;;;;;3.56;94.04;99114.00;1759238;80;21327;-83
2022/03/03 11:47:37;;;;;;;12.50;9.55;;;;;;;3.57;93.48;99115.70;1760796;80;21140;-83
2022/03/03 11:50:43;;;;;;;9.68;8.28;;;;;;;3.58;93.62;99106.60;1772035;80;21717;-76
2022/03/03 11:53:58;;;;;;;7.30;6.60;;;;;;;3.60;93.76;99109.98;1765554;80;21271;-76
2022/03/03 11:57:21;;;;;;;9.83;8.83;;;;;;;3.61;93.43;99127.89;1787602;79;21196;-83
2022/03/03 12:00:27;;;;;;;9.93;7.80;;;;;;;3.66;93.66;99123.35;1758652;80;21263;-75
2022/03/03 12:03:35;;;;;;;9.63;7.40;;;;;;;3.73;93.90;99122.56;1763778;80;21143;-76
2022/03/03 12:06:51;;;;;;;8.58;7.03;;;;;;;3.76;93.17;99111.91;1779397;80;21893;-75
2022/03/03 12:10:00;;;;;;;9.00;7.65;;;;;;;3.71;92.86;99113.73;1766061;80;21138;-76
2022/03/03 12:13:40;;;;;;;9.78;6.90;;;;;;;3.60;92.73;99107.27;1770949;80;21303;-76
2022/03/03 12:16:49;;;;;;;9.28;7.08;;;;;;;3.54;93.09;99102.52;1748243;80;21224;-75
2022/03/03 12:19:54;;;;;;;7.95;7.08;;;;;;;3.47;93.66;99090.63;1754882;80;21676;-82
2022/03/03 12:23:19;;;;;;;9.95;7.65;;;;;;;3.43;93.85;99090.61;1757994;80;21849;-76
2022/03/03 12:26:28;;;;;;;7.15;6.45;;;;;;;3.44;94.10;99081.52;1777421;80;21165;-82
2022/03/03 12:29:50;;;;;;;8.03;6.03;;;;;;;3.46;93.33;99074.08;1758257;80;21252;-76
2022/03/03 12:33:04;;;;;;;6.60;5.55;;;;;;;3.46;92.65;99069.52;1758528;80;21278;-82
2022/03/03 12:36:11;;;;;;;6.75;5.12;;;;;;;3.42;92.01;99064.59;1757768;80;21367;-82
2022/03/03 12:39:16;;;;;;;6.33;5.40;;;;;;;3.38;92.15;99065.92;1753068;82;21755;-82
2022/03/03 12:42:23;;;;;;;7.17;6.30;;;;;;;3.32;92.37;99075.52;1752565;82;21306;-82
2022/03/03 12:45:28;;;;;;;10.28;8.83;;;;;;;3.31;92.52;99077.89;1738868;82;21742;-82
2022/03/03 12:48:41;;;;;;;9.30;8.33;;;;;;;3.30;92.93;99073.50;1770320;80;21184;-82
2022/03/03 12:51:52;;;;;;;8.53;6.92;;;;;;;3.29;92.94;99075.36;1784241;80;21304;-75
2022/03/03 12:55:02;;;;;;;11.43;9.43;;;;;;;3.27;92.95;99071.10;1783864;80;22029;-76
2022/03/03 12:58:07;;;;;;;15.10;11.53;;;;;;;3.26;93.66;99072.96;1762170;80;21366;-75
2022/03/03 13:01:13;;;;;;;10.88;9.30;;;;;;;3.27;93.64;99065.70;1783530;80;21331;-76
2022/03/03 13:04:22;;;;;;;9.73;8.73;;;;;;;3.26;93.36;99072.96;1757009;80;21166;-78
2022/03/03 13:07:29;;;;;;;7.12;5.83;;;;;;;3.24;92.85;99054.69;1739734;81;21886;-82
2022/03/03 13:10:35;;;;;;;5.80;5.28;;;;;;;3.24;92.66;99059.25;1751285;82;21304;-76
2022/03/03 13:14:06;;;;;;;8.38;7.30;;;;;;;3.24;92.80;99068.70;1752744;82;21340;-82
2022/03/03 13:17:16;;;;;;;6.28;5.55;;;;;;;3.24;92.42;99051.98;1752580;82;21344;-81
2022/03/03 13:20:21;;;;;;;8.13;6.83;;;;;;;3.22;91.64;99068.88;1743729;81;21324;-82
2022/03/03 13:23:27;;;;;;;7.55;6.45;;;;;;;3.21;91.31;99067.19;1740159;82;21357;-82
2022/03/03 13:26:36;;;;;;;7.00;6.25;;;;;;;3.20;91.65;99076.78;1731926;82;21183;-76
2022/03/03 13:29:44;;;;;;;7.67;6.80;;;;;;;3.15;91.26;99066.45;1739667;82;21333;-76
2022/03/03 13:32:57;;;;;;;10.35;8.55;;;;;;;3.15;91.70;99073.21;1740185;81;21748;-75
2022/03/03 13:36:02;;;;;;;6.08;5.47;;;;;;;3.14;91.45;99075.58;1730505;82;21313;-78
2022/03/03 13:39:09;;;;;;;6.15;5.40;;;;;;;3.13;90.64;99067.64;1740024;82;21274;-75
2022/03/03 13:42:18;;;;;;;5.83;5.12;;;;;;;3.11;90.41;99066.45;1740166;82;21321;-76
2022/03/03 13:45:30;;;;;;;12.53;7.10;;;;;;;3.08;90.66;99060.85;1740041;82;21352;-76
2022/03/03 13:48:40;;;;;;;10.10;7.78;;;;;;;3.07;91.49;99051.56;1733477;81;21757;-82
2022/03/03 13:51:45;;;;;;;7.55;5.65;;;;;;;3.04;91.80;99062.17;1729136;83;21802;-76
2022/03/03 13:54:58;;;;;;;14.63;10.45;;;;;;;3.03;91.77;99067.74;1729149;83;21452;-80
2022/03/03 13:58:03;;;;;;;12.18;9.25;;;;;;;3.00;92.24;99072.10;1729286;83;21322;-75
2022/03/03 14:01:09;;;;;;;11.95;8.73;;;;;;;3.01;92.45;99073.79;1729387;83;21835;-82
2022/03/03 14:04:23;;;;;;;10.05;7.85;;;;;;;3.02;92.72;99070.95;1751101;79;21703;-76
2022/03/03 14:07:39;;;;;;;8.75;7.70;;;;;;;3.02;92.72;99066.05;1768966;81;21343;-82
2022/03/03 14:11:19;;;;;;;13.05;8.50;;;;;;;3.02;92.48;99057.95;1770660;81;21292;-83
2022/03/03 14:14:28;;;;;;;14.00;9.90;;;;;;;2.99;92.47;99058.26;1770962;81;21707;-75
2022/03/03 14:17:33;;;;;;;11.40;9.30;;;;;;;2.97;92.61;99054.88;1765022;81;21287;-75
2022/03/03 14:20:41;;;;;;;11.90;8.98;;;;;;;2.96;93.12;99057.21;1727488;82;21306;-78
2022/03/03 14:23:46;;;;;;;13.78;9.68;;;;;;;2.93;93.65;99045.39;1745659;81;21178;-76
2022/03/03 14:26:56;;;;;;;14.80;10.58;;;;;;;2.92;93.95;99043.70;1769078;81;21300;-82
2022/03/03 14:30:01;;;;;;;10.95;9.55;;;;;;;2.90;93.83;99044.34;1769770;81;21296;-74
2022/03/03 14:33:07;;;;;;;11.97;9.53;;;;;;;2.88;94.02;99049.08;1769201;80;21501;-76
2022/03/03 14:36:13;;;;;;;11.73;9.55;;;;;;;2.84;94.06;99045.83;1769496;81;21277;-83